Time;durP1;ratioP1;P1;durP2;ratioP2;P2;SDS_P1;SDS_P2;PMS_P1;PMS_P2;Temp;Humidity;BMP_temperature;BMP_pressure;BME280_temperature;BME280_humidity;BME280_pressure;Samples;Min_cycle;Max_cycle;Signal;HPM_P1;HPM_P2
2024/01/07 00:01:13;;;;;;;13.35;11.30;;;;;;;0.33;95.10;101020.56;7390967;19;20422;-63
2024/01/07 00:03:41;;;;;;;13.55;12.07;;;;;;;0.32;95.08;101021.53;7390652;19;20399;-63
2024/01/07 00:06:10;;;;;;;14.63;12.10;;;;;;;0.31;94.81;101022.44;7390520;19;20685;-63
2024/01/07 00:08:36;;;;;;;13.70;12.25;;;;;;;0.28;94.96;101027.88;7394886;19;20360;-63
2024/01/07 00:11:03;;;;;;;14.95;12.25;;;;;;;0.27;95.06;101026.19;7389039;19;20352;-63
2024/01/07 00:13:30;;;;;;;15.23;12.80;;;;;;;0.28;94.99;101027.88;7392148;19;20383;-64
2024/01/07 00:15:57;;;;;;;14.02;12.27;;;;;;;0.24;94.94;101026.41;7390056;19;20348;-65
2024/01/07 00:18:24;;;;;;;14.70;13.20;;;;;;;0.27;95.06;101036.63;7391824;19;20383;-64
2024/01/07 00:20:51;;;;;;;15.02;13.00;;;;;;;0.25;94.96;101030.66;7390149;19;20349;-63
2024/01/07 00:23:18;;;;;;;17.83;13.55;;;;;;;0.24;94.99;101039.44;7394104;19;20348;-63
2024/01/07 00:25:44;;;;;;;21.00;14.02;;;;;;;0.23;95.11;101039.53;7387906;19;20374;-63
2024/01/07 00:28:11;;;;;;;18.58;14.52;;;;;;;0.20;95.18;101041.41;7391261;19;20879;-63
2024/01/07 00:30:38;;;;;;;15.95;14.25;;;;;;;0.19;95.23;101038.91;7393568;19;20391;-63
2024/01/07 00:33:05;;;;;;;17.60;14.55;;;;;;;0.17;95.42;101048.59;7390726;19;20382;-63
2024/01/07 00:35:31;;;;;;;17.75;14.07;;;;;;;0.15;95.49;101047.84;7388717;19;20840;-63
2024/01/07 00:37:58;;;;;;;17.35;14.77;;;;;;;0.12;95.59;101048.88;7388885;19;20395;-63
2024/01/07 00:40:26;;;;;;;16.75;14.38;;;;;;;0.10;95.55;101045.53;7387810;19;20328;-63
2024/01/07 00:42:53;;;;;;;18.40;14.52;;;;;;;0.03;95.47;101053.88;7389835;19;20341;-63
2024/01/07 00:45:20;;;;;;;16.23;13.77;;;;;;;-0.03;95.47;101050.72;7389332;19;20832;-63
2024/01/07 00:47:46;;;;;;;19.03;15.30;;;;;;;-0.04;95.45;101053.44;7392069;19;20732;-64
2024/01/07 00:50:13;;;;;;;20.50;15.70;;;;;;;-0.07;95.52;101059.66;7388307;19;20377;-64
2024/01/07 00:52:43;;;;;;;22.50;14.75;;;;;;;-0.12;95.37;101061.75;7391965;19;20351;-63
2024/01/07 00:55:09;;;;;;;17.77;15.18;;;;;;;-0.13;95.47;101054.84;7387565;19;20337;-63
2024/01/07 00:57:36;;;;;;;19.77;14.85;;;;;;;-0.10;95.46;101066.88;7387861;19;20380;-64
2024/01/07 01:00:06;;;;;;;16.48;13.70;;;;;;;-0.10;95.49;101067.69;7391407;19;20463;-64
2024/01/07 01:02:35;;;;;;;17.08;14.55;;;;;;;-0.08;95.65;101084.06;7390518;19;20409;-63
2024/01/07 01:05:03;;;;;;;16.88;14.80;;;;;;;-0.06;95.51;101086.59;7388573;19;20377;-63
2024/01/07 01:07:29;;;;;;;15.65;13.43;;;;;;;-0.06;95.13;101086.59;7398193;19;20356;-64
2024/01/07 01:09:57;;;;;;;16.90;12.90;;;;;;;-0.09;94.84;101092.81;7397977;19;20373;-64
2024/01/07 01:12:24;;;;;;;14.50;12.13;;;;;;;-0.13;94.67;101091.34;7398424;19;20364;-63
2024/01/07 01:14:51;;;;;;;16.42;12.88;;;;;;;-0.12;94.30;101098.25;7396680;19;20328;-63
2024/01/07 01:17:18;;;;;;;18.88;13.30;;;;;;;-0.10;94.61;101098.97;7396964;19;20349;-63
2024/01/07 01:19:44;;;;;;;18.85;14.88;;;;;;;-0.08;94.63;101102.34;7399968;19;20696;-64
2024/01/07 01:22:11;;;;;;;17.33;14.52;;;;;;;-0.04;94.72;101106.44;7397870;19;20393;-63
2024/01/07 01:24:38;;;;;;;15.98;13.15;;;;;;;-0.07;94.59;101109.22;7393308;19;20420;-63
2024/01/07 01:27:05;;;;;;;13.90;11.88;;;;;;;-0.08;93.95;101110.16;7397535;19;20399;-64
2024/01/07 01:29:31;;;;;;;15.45;12.07;;;;;;;-0.08;94.10;101109.31;7397243;19;20336;-63
2024/01/07 01:31:58;;;;;;;15.57;12.23;;;;;;;-0.05;94.37;101112.56;7393649;19;20343;-64
2024/01/07 01:34:25;;;;;;;15.43;13.05;;;;;;;-0.04;93.98;101116.03;7396545;19;20348;-64
2024/01/07 01:36:52;;;;;;;17.17;12.50;;;;;;;-0.05;93.81;101114.34;7394899;19;20348;-64
2024/01/07 01:39:18;;;;;;;16.30;11.88;;;;;;;-0.03;94.04;101115.91;7398322;19;20444;-64
2024/01/07 01:41:45;;;;;;;15.48;11.45;;;;;;;-0.06;93.31;101126.53;7393180;19;20852;-64
2024/01/07 01:44:12;;;;;;;14.13;11.35;;;;;;;-0.09;93.21;101126.72;7395426;19;20368;-64
2024/01/07 01:46:38;;;;;;;13.05;11.13;;;;;;;-0.09;93.27;101134.53;7395543;19;20361;-64
2024/01/07 01:49:07;;;;;;;14.00;11.50;;;;;;;-0.09;93.29;101138.94;7398910;19;20705;-64
2024/01/07 01:51:35;;;;;;;14.20;10.23;;;;;;;-0.07;93.36;101144.88;7394210;19;21102;-64
2024/01/07 01:54:02;;;;;;;12.30;9.73;;;;;;;-0.09;93.25;101144.16;7393183;19;20368;-64
2024/01/07 01:56:29;;;;;;;13.50;9.23;;;;;;;-0.11;92.78;101152.06;7397465;19;20369;-64
2024/01/07 01:58:56;;;;;;;12.52;9.55;;;;;;;-0.13;92.77;101153.09;7395195;19;20340;-64
2024/01/07 02:01:23;;;;;;;11.48;8.98;;;;;;;-0.16;92.65;101161.94;7394625;19;20372;-64
2024/01/07 02:03:53;;;;;;;10.45;8.60;;;;;;;-0.24;92.01;101166.78;7396091;19;20389;-64
2024/01/07 02:06:21;;;;;;;11.68;8.82;;;;;;;-0.28;92.15;101154.88;7392290;19;20508;-64
2024/01/07 02:08:48;;;;;;;12.55;8.80;;;;;;;-0.39;92.08;101167.72;7397520;19;20364;-64
2024/01/07 02:11:19;;;;;;;11.85;9.25;;;;;;;-0.41;92.31;101160.00;7393417;19;20955;-64
2024/01/07 02:13:46;;;;;;;12.82;9.73;;;;;;;-0.41;92.30;101176.47;7394279;19;20369;-64
2024/01/07 02:16:14;;;;;;;12.30;9.32;;;;;;;-0.43;92.71;101172.28;7387658;19;20883;-64
2024/01/07 02:18:43;;;;;;;11.88;9.45;;;;;;;-0.45;92.64;101172.38;7395129;19;20368;-64
2024/01/07 02:21:10;;;;;;;12.95;9.00;;;;;;;-0.46;92.42;101173.31;7391959;19;20360;-64
2024/01/07 02:23:37;;;;;;;12.07;9.57;;;;;;;-0.49;92.35;101177.84;7397036;19;20355;-64
2024/01/07 02:26:05;;;;;;;11.23;8.73;;;;;;;-0.49;92.60;101176.09;7392804;19;20320;-64
2024/01/07 02:28:33;;;;;;;10.77;8.48;;;;;;;-0.47;92.45;101176.84;7395587;19;20356;-64
2024/01/07 02:31:00;;;;;;;12.88;8.85;;;;;;;-0.50;92.07;101187.44;7395948;19;20389;-64
2024/01/07 02:33:28;;;;;;;10.73;8.30;;;;;;;-0.48;92.40;101184.75;7389757;19;20317;-64
2024/01/07 02:35:55;;;;;;;11.43;9.07;;;;;;;-0.47;92.37;101192.50;7392422;19;20381;-64
2024/01/07 02:38:23;;;;;;;11.80;9.13;;;;;;;-0.46;92.45;101193.31;7393191;19;20753;-64
2024/01/07 02:40:49;;;;;;;12.50;9.10;;;;;;;-0.44;92.37;101197.50;7393131;19;20336;-66
2024/01/07 02:43:16;;;;;;;13.85;10.00;;;;;;;-0.39;92.83;101199.00;7393935;19;20828;-65
2024/01/07 02:45:43;;;;;;;13.90;10.48;;;;;;;-0.37;92.57;101197.97;7391719;19;20368;-65
2024/01/07 02:48:09;;;;;;;12.90;10.10;;;;;;;-0.34;92.56;101202.16;7394674;19;20332;-65
2024/01/07 02:50:36;;;;;;;11.57;9.00;;;;;;;-0.40;92.39;101203.38;7390957;19;20427;-65
2024/01/07 02:53:03;;;;;;;10.70;8.37;;;;;;;-0.42;92.01;101200.03;7394357;19;20836;-65
2024/01/07 02:55:30;;;;;;;10.90;8.10;;;;;;;-0.43;92.19;101209.59;7389694;19;20709;-65
2024/01/07 02:57:56;;;;;;;10.02;7.95;;;;;;;-0.46;91.52;101206.34;7393494;19;20360;-65
2024/01/07 03:00:23;;;;;;;9.20;7.30;;;;;;;-0.48;91.45;101209.03;7394763;19;20414;-65
2024/01/07 03:02:50;;;;;;;9.45;7.07;;;;;;;-0.51;91.29;101216.19;7393481;19;20452;-65
2024/01/07 03:05:17;;;;;;;9.55;7.47;;;;;;;-0.54;91.37;101213.78;7393772;19;20381;-65
2024/01/07 03:07:43;;;;;;;9.90;7.18;;;;;;;-0.53;91.31;101221.53;7392728;19;20393;-65
2024/01/07 03:10:10;;;;;;;9.47;7.33;;;;;;;-0.54;91.21;101219.81;7390426;19;20385;-65
2024/01/07 03:12:37;;;;;;;9.93;7.20;;;;;;;-0.53;91.26;101224.13;7393535;19;20411;-65
2024/01/07 03:15:05;;;;;;;9.57;7.30;;;;;;;-0.51;91.22;101222.28;7391269;19;20845;-65
2024/01/07 03:17:32;;;;;;;10.27;7.80;;;;;;;-0.50;91.65;101228.31;7393225;19;20695;-65
2024/01/07 03:19:59;;;;;;;9.73;7.47;;;;;;;-0.50;91.97;101218.72;7393397;19;20896;-65
2024/01/07 03:22:26;;;;;;;10.40;7.63;;;;;;;-0.53;91.80;101224.13;7392138;19;20353;-65
2024/01/07 03:24:53;;;;;;;9.07;7.32;;;;;;;-0.51;92.20;101234.44;7391258;19;20364;-65
2024/01/07 03:27:19;;;;;;;9.38;7.18;;;;;;;-0.53;92.17;101234.53;7391708;19;20360;-65
2024/01/07 03:29:46;;;;;;;8.48;6.50;;;;;;;-0.55;91.96;101233.78;7394516;19;20385;-65
2024/01/07 03:32:13;;;;;;;9.20;6.53;;;;;;;-0.54;92.02;101238.06;7393958;19;20353;-65
2024/01/07 03:34:40;;;;;;;8.02;6.10;;;;;;;-0.56;91.75;101239.91;7390013;19;20892;-65
2024/01/07 03:37:07;;;;;;;7.72;5.95;;;;;;;-0.58;91.37;101246.16;7392104;19;20884;-65
2024/01/07 03:39:34;;;;;;;7.38;6.00;;;;;;;-0.63;90.92;101249.03;7394064;19;20864;-65
2024/01/07 03:42:01;;;;;;;7.38;5.85;;;;;;;-0.63;91.28;101249.03;7393100;19;20347;-65
2024/01/07 03:44:27;;;;;;;7.18;5.80;;;;;;;-0.62;91.15;101253.31;7389430;19;20328;-65
2024/01/07 03:46:54;;;;;;;7.22;5.43;;;;;;;-0.63;91.13;101252.47;7392212;19;20359;-65
2024/01/07 03:49:21;;;;;;;7.50;5.47;;;;;;;-0.62;91.17;101256.78;7393803;19;21125;-65
2024/01/07 03:51:48;;;;;;;7.47;5.55;;;;;;;-0.63;90.88;101264.66;7389340;19;20352;-65
2024/01/07 03:54:14;;;;;;;6.70;5.20;;;;;;;-0.61;90.92;101257.59;7389751;19;20373;-65
2024/01/07 03:56:41;;;;;;;6.60;5.28;;;;;;;-0.62;90.43;101266.34;7391144;19;20328;-65
2024/01/07 03:59:08;;;;;;;7.68;4.78;;;;;;;-0.63;90.47;101265.50;7393915;19;20402;-65
2024/01/07 04:01:34;;;;;;;6.93;4.97;;;;;;;-0.61;90.36;101270.63;7394363;19;20839;-65
2024/01/07 04:04:02;;;;;;;6.80;4.60;;;;;;;-0.64;90.20;101276.88;7389139;19;20332;-65
2024/01/07 04:06:29;;;;;;;6.50;4.68;;;;;;;-0.63;90.27;101290.72;7390634;19;20368;-66
2024/01/07 04:08:55;;;;;;;6.45;4.28;;;;;;;-0.63;89.81;101288.13;7390292;19;20371;-66
2024/01/07 04:11:22;;;;;;;6.57;4.70;;;;;;;-0.64;89.78;101289.88;7393555;19;20392;-65
2024/01/07 04:13:48;;;;;;;5.95;4.47;;;;;;;-0.62;89.65;101288.03;7394428;19;20434;-65
2024/01/07 04:16:19;;;;;;;5.78;4.15;;;;;;;-0.63;89.10;101291.56;7389714;19;20348;-65
2024/01/07 04:18:47;;;;;;;6.03;3.80;;;;;;;-0.72;88.42;101291.22;7391114;19;20367;-66
2024/01/07 04:21:19;;;;;;;5.20;3.75;;;;;;;-0.69;88.32;101301.50;7389594;19;20352;-65
2024/01/07 04:23:46;;;;;;;5.00;3.90;;;;;;;-0.70;88.59;101305.00;7388286;19;20860;-65
2024/01/07 04:26:12;;;;;;;6.20;4.03;;;;;;;-0.69;88.56;101304.94;7390035;19;20360;-65
2024/01/07 04:28:44;;;;;;;4.82;3.53;;;;;;;-0.68;88.21;101313.56;7391085;19;20381;-66
2024/01/07 04:31:10;;;;;;;6.53;3.70;;;;;;;-0.68;88.23;101298.81;7392662;19;20361;-65
2024/01/07 04:33:37;;;;;;;4.40;3.30;;;;;;;-0.72;87.12;101314.69;7393585;19;20335;-66
2024/01/07 04:36:05;;;;;;;5.22;3.50;;;;;;;-0.75;86.91;101317.47;7387223;19;20353;-65
2024/01/07 04:38:32;;;;;;;5.00;3.42;;;;;;;-0.79;86.63;101315.97;7388597;19;20332;-66
2024/01/07 04:40:58;;;;;;;4.03;3.13;;;;;;;-0.75;87.19;101323.50;7388288;19;20376;-66
2024/01/07 04:43:25;;;;;;;5.53;3.70;;;;;;;-0.73;87.45;101320.81;7391260;19;20337;-66
2024/01/07 04:45:51;;;;;;;5.57;3.20;;;;;;;-0.70;87.63;101326.72;7391584;19;20344;-65
2024/01/07 04:48:18;;;;;;;5.60;3.35;;;;;;;-0.68;87.17;101326.59;7391620;19;20400;-65
2024/01/07 04:50:45;;;;;;;6.00;3.47;;;;;;;-0.65;87.23;101329.06;7391516;19;20365;-65
2024/01/07 04:53:12;;;;;;;5.22;3.65;;;;;;;-0.62;87.43;101340.16;7392958;19;20369;-66
2024/01/07 04:55:39;;;;;;;5.32;3.45;;;;;;;-0.65;86.52;101335.09;7387595;19;20355;-65
2024/01/07 04:58:06;;;;;;;5.15;3.40;;;;;;;-0.67;86.56;101338.72;7389153;19;20399;-65
2024/01/07 05:00:33;;;;;;;5.40;3.60;;;;;;;-0.69;86.46;101343.19;7391576;19;20444;-65
2024/01/07 05:02:59;;;;;;;4.97;3.28;;;;;;;-0.68;86.71;101344.84;7391817;19;20364;-65
2024/01/07 05:05:26;;;;;;;4.70;3.40;;;;;;;-0.74;86.32;101350.44;7388874;19;20352;-66
2024/01/07 05:07:53;;;;;;;6.38;3.67;;;;;;;-0.69;86.78;101356.22;7390533;19;20424;-65
2024/01/07 05:10:20;;;;;;;4.63;3.40;;;;;;;-0.70;86.29;101367.53;7390507;19;20340;-65
2024/01/07 05:12:46;;;;;;;4.60;3.67;;;;;;;-0.70;86.31;101364.94;7390332;19;20417;-65
2024/01/07 05:15:13;;;;;;;5.32;3.20;;;;;;;-0.74;85.83;101366.06;7389606;19;20360;-65
2024/01/07 05:17:40;;;;;;;4.78;3.50;;;;;;;-0.76;85.64;101373.94;7388504;19;20690;-65
2024/01/07 05:20:07;;;;;;;4.85;3.42;;;;;;;-0.78;85.42;101372.34;7384672;19;20959;-65
2024/01/07 05:22:34;;;;;;;6.38;3.58;;;;;;;-0.81;85.60;101375.94;7390825;19;20357;-65
2024/01/07 05:25:00;;;;;;;4.63;3.08;;;;;;;-0.85;84.83;101383.13;7390310;19;20389;-65
2024/01/07 05:27:28;;;;;;;5.00;2.90;;;;;;;-0.89;84.56;101385.97;7391999;19;20336;-65
2024/01/07 05:29:55;;;;;;;4.47;2.95;;;;;;;-0.96;84.50;101392.44;7387600;19;20363;-65
2024/01/07 05:32:22;;;;;;;5.93;3.35;;;;;;;-0.97;84.63;101394.19;7389795;19;20734;-65
2024/01/07 05:34:50;;;;;;;5.55;3.13;;;;;;;-0.97;84.51;101396.81;7386652;19;20376;-65
2024/01/07 05:37:17;;;;;;;5.43;3.20;;;;;;;-1.03;84.31;101397.97;7392471;19;20352;-65
2024/01/07 05:39:44;;;;;;;4.18;2.92;;;;;;;-1.00;84.21;101396.94;7388689;19;20339;-65
2024/01/07 05:42:10;;;;;;;5.43;3.03;;;;;;;-1.04;83.95;101400.66;7391403;19;20372;-65
2024/01/07 05:44:37;;;;;;;5.75;3.20;;;;;;;-1.06;84.15;101403.34;7387474;19;20344;-65
2024/01/07 05:47:04;;;;;;;4.83;3.17;;;;;;;-1.10;83.48;101408.81;7390470;19;20384;-65
2024/01/07 05:49:31;;;;;;;5.45;3.45;;;;;;;-1.06;83.86;101402.50;7390288;19;20369;-66
2024/01/07 05:51:57;;;;;;;4.30;3.10;;;;;;;-1.07;83.82;101406.03;7394888;19;20369;-65
2024/01/07 05:54:24;;;;;;;5.63;3.17;;;;;;;-1.08;83.98;101409.56;7397530;19;20840;-65
2024/01/07 05:56:52;;;;;;;4.70;3.22;;;;;;;-1.09;83.67;101413.06;7398544;19;20364;-65
2024/01/07 05:59:19;;;;;;;4.55;2.83;;;;;;;-1.13;83.09;101422.81;7396293;19;20340;-65
2024/01/07 06:01:46;;;;;;;5.43;3.47;;;;;;;-1.13;83.76;101428.00;7396636;19;20352;-65
2024/01/07 06:04:12;;;;;;;4.63;3.03;;;;;;;-1.17;83.56;101426.53;7391894;19;20369;-65
2024/01/07 06:06:39;;;;;;;5.47;3.20;;;;;;;-1.21;83.33;101437.16;7396357;19;20386;-65
2024/01/07 06:09:07;;;;;;;4.80;3.07;;;;;;;-1.30;82.91;101441.91;7393861;19;20364;-65
2024/01/07 06:11:33;;;;;;;4.10;3.10;;;;;;;-1.34;83.01;101448.22;7397039;19;20369;-65
2024/01/07 06:14:00;;;;;;;5.05;3.13;;;;;;;-1.39;83.01;101447.59;7392770;19;20344;-65
2024/01/07 06:16:27;;;;;;;5.45;3.42;;;;;;;-1.46;83.18;101457.50;7392394;19;20351;-65
2024/01/07 06:18:53;;;;;;;4.60;3.20;;;;;;;-1.51;83.14;101463.84;7396711;19;20675;-65
2024/01/07 06:21:20;;;;;;;4.90;3.13;;;;;;;-1.58;83.39;101459.88;7395309;19;20360;-65
2024/01/07 06:23:47;;;;;;;5.55;3.58;;;;;;;-1.67;83.32;101469.81;7396762;19;20347;-65
2024/01/07 06:26:15;;;;;;;4.68;3.30;;;;;;;-1.74;83.21;101476.28;7394780;19;20708;-65
2024/01/07 06:28:41;;;;;;;5.00;3.30;;;;;;;-1.79;83.71;101480.00;7395578;19;20363;-65
2024/01/07 06:31:08;;;;;;;5.22;3.35;;;;;;;-1.85;83.64;101486.34;7394544;19;20337;-65
2024/01/07 06:33:35;;;;;;;4.93;3.23;;;;;;;-1.88;83.33;101489.94;7395536;19;20380;-65
2024/01/07 06:36:02;;;;;;;4.70;3.47;;;;;;;-1.91;83.61;101489.25;7389489;19;20375;-66
2024/01/07 06:38:28;;;;;;;5.70;3.70;;;;;;;-1.95;83.84;101491.16;7392840;19;20352;-65
2024/01/07 06:40:59;;;;;;;5.28;3.22;;;;;;;-1.97;83.77;101497.38;7395087;19;20376;-65
2024/01/07 06:43:27;;;;;;;5.07;3.40;;;;;;;-2.02;83.91;101505.34;7392018;19;20336;-65
2024/01/07 06:45:54;;;;;;;4.88;3.45;;;;;;;-2.07;84.03;101517.75;7397605;19;20380;-65
2024/01/07 06:48:21;;;;;;;5.00;3.58;;;;;;;-2.09;84.02;101510.00;7392196;19;20356;-65
2024/01/07 06:50:48;;;;;;;4.93;3.20;;;;;;;-2.11;83.94;101514.44;7392073;19;20360;-65
2024/01/07 06:53:15;;;;;;;4.57;3.55;;;;;;;-2.16;84.25;101516.44;7396569;19;20393;-66
2024/01/07 06:55:42;;;;;;;5.72;3.70;;;;;;;-2.23;84.07;101528.03;7395650;19;20368;-65
2024/01/07 06:58:08;;;;;;;6.80;3.70;;;;;;;-2.27;84.18;101523.91;7392898;19;20888;-65
2024/01/07 07:00:35;;;;;;;4.22;3.20;;;;;;;-2.30;84.53;101537.03;7396491;19;20369;-66
2024/01/07 07:03:02;;;;;;;5.25;3.72;;;;;;;-2.32;84.57;101541.44;7393827;19;20349;-66
2024/01/07 07:05:28;;;;;;;5.45;3.28;;;;;;;-2.32;84.65;101546.66;7393158;19;20365;-65
2024/01/07 07:07:55;;;;;;;4.63;3.42;;;;;;;-2.34;84.98;101544.13;7388130;19;20364;-65
2024/01/07 07:10:22;;;;;;;5.10;3.78;;;;;;;-2.32;85.01;101557.88;7393337;19;20928;-66
2024/01/07 07:12:50;;;;;;;5.75;3.45;;;;;;;-2.30;85.19;101555.22;7392664;19;20364;-66
2024/01/07 07:15:17;;;;;;;5.22;3.50;;;;;;;-2.29;85.16;101556.91;7393870;19;20459;-66
2024/01/07 07:17:44;;;;;;;4.50;3.60;;;;;;;-2.27;85.38;101563.72;7394682;19;20364;-66
2024/01/07 07:20:11;;;;;;;5.65;4.10;;;;;;;-2.26;85.40;101562.78;7393729;19;20431;-66
2024/01/07 07:22:38;;;;;;;4.97;3.67;;;;;;;-2.23;85.66;101571.34;7392891;19;20384;-65
2024/01/07 07:25:05;;;;;;;4.97;3.80;;;;;;;-2.18;85.45;101569.41;7390047;19;20381;-66
2024/01/07 07:27:32;;;;;;;4.80;3.42;;;;;;;-2.17;85.66;101574.50;7393908;19;20717;-66
2024/01/07 07:29:59;;;;;;;4.72;3.63;;;;;;;-2.16;85.92;101584.00;7393375;19;20356;-66
2024/01/07 07:32:25;;;;;;;6.40;3.95;;;;;;;-2.13;85.88;101589.06;7393874;19;20420;-66
2024/01/07 07:34:52;;;;;;;5.35;3.65;;;;;;;-2.11;85.91;101587.22;7388602;19;20395;-66
2024/01/07 07:37:19;;;;;;;6.10;4.32;;;;;;;-2.07;85.74;101593.13;7391683;19;20388;-66
2024/01/07 07:39:47;;;;;;;5.72;4.15;;;;;;;-2.06;85.78;101595.69;7392716;19;20331;-66
2024/01/07 07:42:14;;;;;;;7.33;4.50;;;;;;;-2.00;85.95;101606.69;7391811;19;20342;-66
2024/01/07 07:44:41;;;;;;;7.47;4.95;;;;;;;-1.96;85.95;101601.28;7392246;19;20368;-66
2024/01/07 07:47:08;;;;;;;6.43;4.60;;;;;;;-1.93;85.92;101606.34;7386230;19;20384;-66
2024/01/07 07:49:36;;;;;;;5.57;4.55;;;;;;;-1.90;85.59;101618.34;7392705;19;20352;-66
2024/01/07 07:52:03;;;;;;;6.20;4.50;;;;;;;-1.82;86.00;101611.03;7391934;19;20488;-64
2024/01/07 07:54:30;;;;;;;5.57;4.40;;;;;;;-1.75;85.82;101617.63;7387712;19;20729;-63
2024/01/07 07:57:02;;;;;;;6.22;4.47;;;;;;;-1.65;85.44;101624.09;7389529;19;20369;-63
2024/01/07 07:59:28;;;;;;;6.35;4.70;;;;;;;-1.57;85.26;101622.84;7385446;19;20395;-64
2024/01/07 08:01:55;;;;;;;5.13;4.00;;;;;;;-1.50;84.97;101627.72;7392132;19;20360;-63
2024/01/07 08:04:22;;;;;;;5.43;4.38;;;;;;;-1.43;85.13;101636.06;7389882;19;20360;-63
2024/01/07 08:06:49;;;;;;;5.97;4.38;;;;;;;-1.38;85.05;101634.09;7388768;19;20358;-64
2024/01/07 08:09:15;;;;;;;6.15;4.40;;;;;;;-1.30;84.98;101641.50;7390811;19;20370;-64
2024/01/07 08:11:42;;;;;;;6.53;4.40;;;;;;;-1.24;84.70;101639.44;7393301;19;20364;-64
2024/01/07 08:14:09;;;;;;;5.72;3.88;;;;;;;-1.23;84.07;101640.31;7389970;19;20360;-63
2024/01/07 08:16:35;;;;;;;5.82;4.20;;;;;;;-1.20;84.03;101649.72;7387573;19;20356;-63
2024/01/07 08:19:02;;;;;;;4.93;3.88;;;;;;;-1.16;83.74;101656.47;7391270;19;20356;-63
2024/01/07 08:21:29;;;;;;;5.95;4.05;;;;;;;-1.15;84.11;101653.75;7390801;19;20381;-63
2024/01/07 08:23:55;;;;;;;6.05;4.22;;;;;;;-1.10;84.02;101656.16;7389502;19;20337;-63
2024/01/07 08:26:23;;;;;;;5.00;3.60;;;;;;;-1.06;83.89;101668.13;7390060;19;20360;-64
2024/01/07 08:28:49;;;;;;;5.20;3.90;;;;;;;-1.03;83.71;101667.94;7389588;19;20416;-63
2024/01/07 08:31:16;;;;;;;5.45;3.70;;;;;;;-0.98;83.51;101668.56;7390345;19;20442;-63
2024/01/07 08:33:43;;;;;;;5.40;3.50;;;;;;;-0.92;83.53;101670.84;7388970;19;20356;-63
2024/01/07 08:36:10;;;;;;;6.07;3.70;;;;;;;-0.85;83.74;101667.03;7389160;19;20423;-63
2024/01/07 08:38:37;;;;;;;4.97;3.70;;;;;;;-0.79;83.57;101671.06;7389546;19;20340;-63
2024/01/07 08:41:04;;;;;;;4.85;3.75;;;;;;;-0.77;83.01;101676.22;7388480;19;20376;-64
2024/01/07 08:43:31;;;;;;;5.10;3.60;;;;;;;-0.74;83.23;101673.47;7392464;19;20768;-63
2024/01/07 08:45:57;;;;;;;4.68;3.40;;;;;;;-0.70;83.03;101686.28;7390111;19;20332;-63
2024/01/07 08:48:24;;;;;;;4.27;3.33;;;;;;;-0.72;82.48;101687.25;7389420;19;20341;-63
2024/01/07 08:50:51;;;;;;;4.75;3.70;;;;;;;-0.70;82.50;101680.19;7388967;19;20348;-63
2024/01/07 08:53:20;;;;;;;4.82;3.53;;;;;;;-0.71;82.49;101688.94;7390348;19;20364;-64
2024/01/07 08:55:47;;;;;;;5.95;3.95;;;;;;;-0.67;82.34;101690.47;7389305;19;20866;-64
2024/01/07 08:58:14;;;;;;;7.00;4.20;;;;;;;-0.64;82.52;101693.78;7387709;19;20684;-64
2024/01/07 09:00:41;;;;;;;6.55;3.95;;;;;;;-0.62;82.30;101693.69;7393173;19;20357;-64
2024/01/07 09:03:09;;;;;;;5.55;3.80;;;;;;;-0.61;82.45;101697.97;7393056;19;20367;-64
2024/01/07 09:05:36;;;;;;;5.65;3.60;;;;;;;-0.63;82.57;101702.44;7388797;19;20353;-64
2024/01/07 09:08:03;;;;;;;4.65;3.60;;;;;;;-0.63;82.55;101707.66;7387960;19;20371;-63
2024/01/07 09:10:31;;;;;;;5.22;3.42;;;;;;;-0.59;82.71;101708.34;7389215;19;20325;-63
2024/01/07 09:12:57;;;;;;;4.90;3.50;;;;;;;-0.60;82.24;101707.47;7384439;19;20376;-63
2024/01/07 09:15:25;;;;;;;5.03;3.70;;;;;;;-0.54;82.55;101707.16;7381312;19;20467;-64
2024/01/07 09:17:52;;;;;;;5.60;3.78;;;;;;;-0.46;82.81;101710.22;7378364;19;20360;-64
2024/01/07 09:20:19;;;;;;;5.38;4.22;;;;;;;-0.37;82.90;101716.72;7383641;19;20392;-64
2024/01/07 09:22:46;;;;;;;4.68;3.90;;;;;;;-0.33;82.58;101714.81;7383219;19;20349;-64
2024/01/07 09:25:13;;;;;;;6.03;4.50;;;;;;;-0.26;82.52;101716.16;7381818;19;20906;-64
2024/01/07 09:27:39;;;;;;;5.68;4.50;;;;;;;-0.21;82.22;101720.22;7397782;19;20356;-64
2024/01/07 09:30:07;;;;;;;5.80;4.43;;;;;;;-0.16;82.53;101726.97;7400329;19;20340;-63
2024/01/07 09:32:33;;;;;;;5.93;4.82;;;;;;;-0.09;82.27;101721.34;7396266;19;20343;-64
2024/01/07 09:35:05;;;;;;;7.88;5.25;;;;;;;-0.03;82.48;101723.63;7387873;19;20377;-64
2024/01/07 09:37:32;;;;;;;7.15;5.30;;;;;;;-0.01;82.00;101731.38;7394022;19;20349;-63
2024/01/07 09:39:59;;;;;;;5.28;3.90;;;;;;;-0.02;81.48;101727.09;7396040;19;20393;-64
2024/01/07 09:42:26;;;;;;;6.10;3.72;;;;;;;-0.03;81.50;101744.50;7395824;19;20369;-64
2024/01/07 09:44:53;;;;;;;5.60;3.75;;;;;;;-0.06;81.37;101734.25;7393822;19;20348;-64
2024/01/07 09:47:20;;;;;;;5.38;3.95;;;;;;;-0.04;81.59;101737.59;7395230;19;20396;-64
2024/01/07 09:49:47;;;;;;;4.93;3.90;;;;;;;-0.03;81.97;101728.84;7393243;19;20914;-64
2024/01/07 09:52:14;;;;;;;5.07;3.75;;;;;;;-0.04;81.51;101740.22;7394720;19;20686;-64
2024/01/07 09:54:41;;;;;;;5.35;3.83;;;;;;;-0.04;81.59;101748.03;7398696;19;20356;-64
2024/01/07 09:57:08;;;;;;;6.70;4.10;;;;;;;0.02;81.87;101741.63;7390727;19;20880;-64
2024/01/07 09:59:39;;;;;;;5.43;3.13;;;;;;;0.03;81.48;101743.34;7397639;19;20360;-64
2024/01/07 10:02:07;;;;;;;5.57;3.20;;;;;;;0.03;81.46;101748.56;7395323;19;21178;-64
2024/01/07 10:04:34;;;;;;;4.45;3.10;;;;;;;0.04;81.21;101741.56;7393432;19;20367;-64
2024/01/07 10:07:01;;;;;;;6.00;3.78;;;;;;;0.11;81.79;101750.78;7394036;19;20341;-63
2024/01/07 10:09:30;;;;;;;4.82;3.45;;;;;;;0.17;81.79;101746.06;7394689;19;20855;-63
2024/01/07 10:11:56;;;;;;;4.97;3.25;;;;;;;0.19;81.42;101745.97;7394612;19;20337;-63
2024/01/07 10:14:24;;;;;;;4.40;3.50;;;;;;;0.25;81.54;101752.63;7394602;19;20340;-63
2024/01/07 10:16:54;;;;;;;4.30;3.43;;;;;;;0.31;81.47;101749.69;7394576;19;20388;-64
2024/01/07 10:19:25;;;;;;;5.30;3.72;;;;;;;0.39;81.60;101744.91;7393710;19;20364;-64
2024/01/07 10:22:03;;;;;;;7.15;4.72;;;;;;;0.43;80.72;101751.66;7395820;19;20444;-63
2024/01/07 10:24:40;;;;;;;6.13;4.10;;;;;;;0.39;80.38;101745.75;7391524;19;20364;-64
2024/01/07 10:27:08;;;;;;;5.70;3.78;;;;;;;0.45;81.28;101748.94;7385696;19;20340;-64
2024/01/07 10:29:34;;;;;;;5.90;3.97;;;;;;;0.48;80.55;101746.19;7387209;19;20371;-64
2024/01/07 10:32:04;;;;;;;4.80;3.65;;;;;;;0.48;80.67;101748.78;7388916;19;20353;-64
2024/01/07 10:34:33;;;;;;;4.97;3.70;;;;;;;0.49;81.08;101742.63;7391288;19;20737;-64
2024/01/07 10:37:01;;;;;;;5.53;4.20;;;;;;;0.56;81.21;101749.22;7396715;19;20363;-64
2024/01/07 10:39:30;;;;;;;5.53;3.80;;;;;;;0.63;80.99;101747.09;7391213;19;20359;-64
2024/01/07 10:42:00;;;;;;;4.88;3.72;;;;;;;0.67;81.07;101754.69;7394216;19;20359;-63
2024/01/07 10:44:29;;;;;;;4.30;3.03;;;;;;;0.67;81.07;101741.63;7392395;19;20349;-64
2024/01/07 10:46:58;;;;;;;5.50;3.57;;;;;;;0.69;80.70;101742.38;7393448;19;20416;-63
2024/01/07 10:49:26;;;;;;;5.60;4.28;;;;;;;0.72;80.45;101751.81;7393275;19;20344;-64
2024/01/07 10:52:01;;;;;;;6.03;4.30;;;;;;;0.73;80.90;101738.69;7398051;19;20378;-64
2024/01/07 10:54:29;;;;;;;4.22;3.40;;;;;;;0.73;80.21;101743.91;7393319;19;20404;-64
2024/01/07 10:57:21;;;;;;;4.65;3.35;;;;;;;0.75;80.22;101746.44;7395995;19;20417;-62
2024/01/07 10:59:50;;;;;;;3.92;3.05;;;;;;;0.73;80.10;101746.50;7393688;19;20388;-63
2024/01/07 11:02:17;;;;;;;4.55;3.30;;;;;;;0.78;80.49;101757.53;7393905;19;20367;-63
2024/01/07 11:05:26;;;;;;;6.50;3.67;;;;;;;0.84;80.42;101750.28;7393368;19;20324;-62
2024/01/07 11:08:08;;;;;;;5.57;3.42;;;;;;;0.91;80.35;101762.06;7392708;19;20368;-63
2024/01/07 11:10:41;;;;;;;5.68;3.45;;;;;;;0.92;80.09;101759.38;7396247;19;20344;-63
2024/01/07 11:13:38;;;;;;;4.53;3.25;;;;;;;0.90;80.13;101753.41;7396157;19;20446;-63
2024/01/07 11:16:11;;;;;;;5.22;3.53;;;;;;;0.90;79.61;101742.97;7394298;19;20335;-63
2024/01/07 11:18:40;;;;;;;4.60;3.40;;;;;;;0.91;79.96;101755.06;7389027;19;20375;-63
2024/01/07 11:21:07;;;;;;;7.78;4.90;;;;;;;0.90;79.65;101758.63;7387626;19;20456;-63
2024/01/07 11:23:39;;;;;;;5.65;4.25;;;;;;;0.90;79.81;101750.78;7394869;19;20675;-63
2024/01/07 11:26:08;;;;;;;12.70;9.30;;;;;;;0.89;80.47;101749.09;7394958;19;20393;-63